createdAt,value
2022-12-23T00:01:00.326Z,100.00
2022-12-23T00:04:02.828Z,100.00
2022-12-23T00:07:05.269Z,100.00
2022-12-23T00:10:08.821Z,100.00
2022-12-23T00:13:30.981Z,100.00
2022-12-23T00:16:36.272Z,100.00
2022-12-23T00:19:38.693Z,100.00
2022-12-23T00:23:00.730Z,100.00
2022-12-23T00:26:04.272Z,100.00
2022-12-23T00:29:06.856Z,100.00
2022-12-23T00:32:09.674Z,100.00
2022-12-23T00:35:12.106Z,100.00
2022-12-23T00:38:15.189Z,100.00
2022-12-23T00:41:37.750Z,100.00
2022-12-23T00:44:40.091Z,100.00
2022-12-23T00:48:02.028Z,100.00
2022-12-23T00:51:04.701Z,100.00
2022-12-23T00:54:07.847Z,100.00
2022-12-23T00:57:10.262Z,100.00
2022-12-23T01:00:13.213Z,100.00
2022-12-23T01:03:34.612Z,100.00
2022-12-23T01:06:37.100Z,100.00
2022-12-23T01:09:39.560Z,100.00
2022-12-23T01:12:42.223Z,100.00
2022-12-23T01:15:44.795Z,100.00
2022-12-23T01:18:47.172Z,100.00
2022-12-23T01:21:49.597Z,100.00
2022-12-23T01:24:52.028Z,100.00
2022-12-23T01:27:54.415Z,100.00
2022-12-23T01:30:57.312Z,100.00
2022-12-23T01:33:59.701Z,100.00
2022-12-23T01:37:02.242Z,100.00
2022-12-23T01:40:05.448Z,100.00
2022-12-23T01:43:14.941Z,100.00
2022-12-23T01:46:18.088Z,100.00
2022-12-23T01:49:20.826Z,100.00
2022-12-23T01:52:23.469Z,100.00
2022-12-23T01:55:28.630Z,100.00
2022-12-23T01:58:35.208Z,100.00
2022-12-23T02:01:56.670Z,100.00
2022-12-23T02:04:59.930Z,100.00
2022-12-23T02:08:21.747Z,100.00
2022-12-23T02:11:42.900Z,100.00
2022-12-23T02:15:22.267Z,100.00
2022-12-23T02:19:08.076Z,100.00
2022-12-23T02:22:31.914Z,100.00
2022-12-23T02:25:46.240Z,100.00
2022-12-23T02:29:12.783Z,100.00
2022-12-23T02:32:36.790Z,100.00
2022-12-23T02:36:07.695Z,100.00
2022-12-23T02:39:19.389Z,100.00
2022-12-23T02:42:31.218Z,100.00
2022-12-23T02:45:41.932Z,100.00
2022-12-23T02:49:08.294Z,100.00
2022-12-23T02:52:16.200Z,100.00
2022-12-23T02:55:28.221Z,100.00
2022-12-23T02:58:37.571Z,100.00
2022-12-23T03:01:41.474Z,100.00
2022-12-23T03:04:44.134Z,100.00
2022-12-23T03:07:46.573Z,100.00
2022-12-23T03:11:05.038Z,100.00
2022-12-23T03:14:25.688Z,100.00
2022-12-23T03:17:27.984Z,100.00
2022-12-23T03:20:52.299Z,100.00
2022-12-23T03:24:06.583Z,100.00
2022-12-23T03:27:22.438Z,100.00
2022-12-23T03:30:25.903Z,100.00
2022-12-23T03:33:34.124Z,100.00
2022-12-23T03:36:45.854Z,100.00
2022-12-23T03:39:59.081Z,100.00
2022-12-23T03:43:09.832Z,100.00
2022-12-23T03:46:39.286Z,100.00
2022-12-23T03:49:53.050Z,100.00
2022-12-23T03:53:04.008Z,100.00
2022-12-23T03:56:12.598Z,100.00
2022-12-23T03:59:20.153Z,100.00
2022-12-23T04:02:28.334Z,100.00
2022-12-23T04:05:35.073Z,100.00
2022-12-23T04:08:38.911Z,100.00
2022-12-23T04:11:41.283Z,100.00
2022-12-23T04:14:48.798Z,100.00
2022-12-23T04:17:53.055Z,100.00
2022-12-23T04:20:59.376Z,100.00
2022-12-23T04:24:01.437Z,100.00
2022-12-23T04:27:03.504Z,100.00
2022-12-23T04:30:07.322Z,100.00
2022-12-23T04:33:12.061Z,100.00
2022-12-23T04:36:14.156Z,100.00
2022-12-23T04:39:16.152Z,100.00
2022-12-23T04:42:18.268Z,100.00
2022-12-23T04:45:20.366Z,100.00
2022-12-23T04:48:22.474Z,100.00
2022-12-23T04:51:24.653Z,100.00
2022-12-23T04:54:26.829Z,100.00
2022-12-23T04:57:28.928Z,100.00
2022-12-23T05:00:39.226Z,100.00
2022-12-23T05:03:42.296Z,100.00
2022-12-23T05:06:44.520Z,100.00
2022-12-23T05:09:46.779Z,100.00
2022-12-23T05:12:48.757Z,100.00
2022-12-23T05:15:54.116Z,100.00
2022-12-23T05:18:56.200Z,100.00
2022-12-23T05:21:58.257Z,100.00
2022-12-23T05:25:00.334Z,100.00
2022-12-23T05:28:03.213Z,100.00
2022-12-23T05:31:08.225Z,100.00
2022-12-23T05:34:10.526Z,100.00
2022-12-23T05:37:12.733Z,100.00
2022-12-23T05:40:21.605Z,100.00
2022-12-23T05:43:25.824Z,100.00
2022-12-23T05:46:27.996Z,100.00
2022-12-23T05:49:32.596Z,100.00
2022-12-23T05:52:34.769Z,100.00
2022-12-23T05:55:37.076Z,100.00
2022-12-23T05:58:39.120Z,100.00
2022-12-23T06:01:41.429Z,100.00
2022-12-23T06:04:43.605Z,100.00
2022-12-23T06:07:45.699Z,100.00
2022-12-23T06:10:48.743Z,100.00
2022-12-23T06:13:52.660Z,100.00
2022-12-23T06:16:54.884Z,100.00
2022-12-23T06:19:56.969Z,100.00
2022-12-23T06:22:59.129Z,100.00
2022-12-23T06:26:02.319Z,100.00
2022-12-23T06:29:04.614Z,100.00
2022-12-23T06:32:07.369Z,100.00
2022-12-23T06:35:09.853Z,100.00
2022-12-23T06:38:12.497Z,100.00
2022-12-23T06:41:15.098Z,100.00
2022-12-23T06:44:17.555Z,100.00
2022-12-23T06:47:19.581Z,100.00
2022-12-23T06:50:22.477Z,100.00
2022-12-23T06:53:25.035Z,100.00
2022-12-23T06:56:27.639Z,100.00
2022-12-23T06:59:30.096Z,100.00
2022-12-23T07:02:32.321Z,100.00
2022-12-23T07:05:37.659Z,100.00
2022-12-23T07:08:40.141Z,100.00
2022-12-23T07:11:42.438Z,100.00
2022-12-23T07:14:44.469Z,100.00
2022-12-23T07:17:46.511Z,100.00
2022-12-23T07:20:48.940Z,100.00
2022-12-23T07:23:50.979Z,100.00
2022-12-23T07:26:53.043Z,100.00
2022-12-23T07:29:55.146Z,100.00
2022-12-23T07:32:57.190Z,100.00
2022-12-23T07:35:59.809Z,100.00
2022-12-23T07:39:01.949Z,100.00
2022-12-23T07:42:33.950Z,100.00
2022-12-23T07:45:27.793Z,100.00
2022-12-23T07:48:30.024Z,100.00
2022-12-23T07:51:32.571Z,100.00
2022-12-23T07:54:34.888Z,100.00
2022-12-23T07:57:38.007Z,100.00
2022-12-23T08:00:44.879Z,100.00
2022-12-23T08:03:47.895Z,100.00
2022-12-23T08:06:50.027Z,100.00
2022-12-23T08:09:52.101Z,100.00
2022-12-23T08:12:54.306Z,100.00
2022-12-23T08:16:01.125Z,100.00
2022-12-23T08:19:03.687Z,100.00
2022-12-23T08:22:07.895Z,100.00
2022-12-23T08:25:10.225Z,100.00
2022-12-23T08:28:12.312Z,100.00
2022-12-23T08:31:14.427Z,100.00
2022-12-23T08:34:17.175Z,100.00
2022-12-23T08:37:19.204Z,100.00
2022-12-23T08:40:23.251Z,100.00
2022-12-23T08:43:28.820Z,100.00
2022-12-23T08:46:35.335Z,99.03
2022-12-23T08:49:37.587Z,97.33
2022-12-23T08:52:39.663Z,97.30
2022-12-23T08:55:44.430Z,97.18
2022-12-23T08:58:48.921Z,97.24
2022-12-23T09:01:51.299Z,97.18
2022-12-23T09:04:53.737Z,96.81
2022-12-23T09:07:56.065Z,96.38
2022-12-23T09:10:58.314Z,94.92
2022-12-23T09:14:01.641Z,94.78
2022-12-23T09:17:03.773Z,94.27
2022-12-23T09:20:06.658Z,93.70
2022-12-23T09:23:09.170Z,93.40
2022-12-23T09:26:17.605Z,92.77
2022-12-23T09:29:19.679Z,91.74
2022-12-23T09:32:21.900Z,91.34
2022-12-23T09:35:24.257Z,90.89
2022-12-23T09:38:26.282Z,90.94
2022-12-23T09:42:01.590Z,90.14
2022-12-23T09:45:40.473Z,89.74
2022-12-23T09:49:02.734Z,89.27
2022-12-23T09:52:13.805Z,89.09
2022-12-23T09:55:17.468Z,89.12
2022-12-23T09:58:40.732Z,88.30
2022-12-23T10:02:20.130Z,87.98
2022-12-23T10:05:49.029Z,86.36
2022-12-23T10:08:55.298Z,84.96
2022-12-23T10:11:58.063Z,83.02
2022-12-23T10:15:02.758Z,82.46
2022-12-23T10:18:40.270Z,80.58
2022-12-23T10:21:55.459Z,78.69
2022-12-23T10:25:01.472Z,76.42
2022-12-23T10:28:04.791Z,75.58
2022-12-23T10:34:49.475Z,75.42
2022-12-23T10:37:51.540Z,74.93
2022-12-23T10:41:23.614Z,75.33
2022-12-23T10:45:03.113Z,75.68
2022-12-23T10:48:41.072Z,75.05
2022-12-23T10:52:15.589Z,75.88
2022-12-23T10:55:31.423Z,76.02
2022-12-23T10:58:42.531Z,75.32
2022-12-23T11:01:52.409Z,75.67
2022-12-23T11:04:54.764Z,75.52
2022-12-23T11:07:57.580Z,75.91
2022-12-23T11:11:01.929Z,75.17
2022-12-23T11:14:03.933Z,75.51
2022-12-23T11:17:19.168Z,75.74
2022-12-23T11:20:22.284Z,75.66
2022-12-23T11:23:24.409Z,75.84
2022-12-23T11:26:26.458Z,74.81
2022-12-23T11:29:43.990Z,75.85
2022-12-23T11:32:46.199Z,75.10
2022-12-23T11:35:48.416Z,74.59
2022-12-23T11:39:12.132Z,75.13
2022-12-23T11:42:24.573Z,75.28
2022-12-23T11:45:30.045Z,74.49
2022-12-23T11:48:32.285Z,72.64
2022-12-23T11:51:34.413Z,68.28
2022-12-23T11:54:37.558Z,68.36
2022-12-23T11:57:48.838Z,68.13
2022-12-23T12:00:58.828Z,68.67
2022-12-23T12:04:06.671Z,68.18
2022-12-23T12:07:14.547Z,68.25
2022-12-23T12:10:21.867Z,68.96
2022-12-23T12:13:36.649Z,67.95
2022-12-23T12:17:11.106Z,67.75
2022-12-23T12:20:30.477Z,68.27
2022-12-23T12:24:08.375Z,67.91
2022-12-23T12:27:14.009Z,67.84
2022-12-23T12:30:19.892Z,67.81
2022-12-23T12:33:50.827Z,67.26
2022-12-23T12:36:59.065Z,68.30
2022-12-23T12:40:13.892Z,67.44
2022-12-23T12:43:32.289Z,66.72
2022-12-23T12:46:57.647Z,66.67
2022-12-23T12:50:04.923Z,67.36
2022-12-23T12:53:19.374Z,66.90
2022-12-23T12:56:53.570Z,67.07
2022-12-23T13:00:05.349Z,67.87
2022-12-23T13:03:22.242Z,67.67
2022-12-23T13:06:35.728Z,68.14
2022-12-23T13:09:38.840Z,68.12
2022-12-23T13:12:40.973Z,68.42
2022-12-23T13:15:59.126Z,68.69
2022-12-23T13:19:06.113Z,68.50
2022-12-23T13:22:15.641Z,68.36
2022-12-23T13:25:20.327Z,68.11
2022-12-23T13:29:05.247Z,68.26
2022-12-23T13:32:25.126Z,66.99
2022-12-23T13:35:32.299Z,67.08
2022-12-23T13:38:43.045Z,66.87
2022-12-23T13:41:51.694Z,65.98
2022-12-23T13:44:56.675Z,65.56
2022-12-23T13:48:29.841Z,65.88
2022-12-23T13:51:45.405Z,66.21
2022-12-23T13:54:50.099Z,66.22
2022-12-23T13:57:52.124Z,66.52
2022-12-23T14:01:31.589Z,67.32
2022-12-23T14:04:56.916Z,68.09
2022-12-23T14:08:01.580Z,68.51
2022-12-23T14:11:16.052Z,68.79
2022-12-23T14:14:23.613Z,69.59
2022-12-23T14:17:39.089Z,70.28
2022-12-23T14:21:04.703Z,70.86
2022-12-23T14:24:35.551Z,71.18
2022-12-23T14:28:04.404Z,71.42
2022-12-23T14:31:31.224Z,71.27
2022-12-23T14:34:34.456Z,71.53
2022-12-23T14:37:36.619Z,71.64
2022-12-23T14:40:43.200Z,71.53
2022-12-23T14:43:45.495Z,71.51
2022-12-23T14:46:47.480Z,71.76
2022-12-23T14:49:49.820Z,71.98
2022-12-23T14:53:00.424Z,72.06
2022-12-23T14:56:26.949Z,72.17
2022-12-23T14:59:42.919Z,72.33
2022-12-23T15:02:45.070Z,72.88
2022-12-23T15:05:47.382Z,73.40
2022-12-23T15:08:53.066Z,73.56
2022-12-23T15:11:57.640Z,74.22
2022-12-23T15:15:22.901Z,74.29
2022-12-23T15:18:25.675Z,74.77
2022-12-23T15:21:33.660Z,75.39
2022-12-23T15:24:35.693Z,76.14
2022-12-23T15:27:37.788Z,76.72
2022-12-23T15:30:48.766Z,76.91
2022-12-23T15:34:02.715Z,77.95
2022-12-23T15:37:13.213Z,78.12
2022-12-23T15:40:35.114Z,78.30
2022-12-23T15:43:41.983Z,77.76
2022-12-23T15:46:44.577Z,77.63
2022-12-23T15:49:46.898Z,77.75
2022-12-23T15:52:50.761Z,77.79
2022-12-23T15:55:53.652Z,77.90
2022-12-23T15:58:56.882Z,78.18
2022-12-23T16:01:59.554Z,78.73
2022-12-23T16:05:04.143Z,78.83
2022-12-23T16:08:28.200Z,79.09
2022-12-23T16:12:00.113Z,79.36
2022-12-23T16:15:02.338Z,79.23
2022-12-23T16:18:32.868Z,79.17
2022-12-23T16:21:36.965Z,79.38
2022-12-23T16:24:48.558Z,79.28
2022-12-23T16:27:58.404Z,79.48
2022-12-23T16:31:01.458Z,79.54
2022-12-23T16:34:07.808Z,80.19
2022-12-23T16:37:09.887Z,80.25
2022-12-23T16:40:14.522Z,80.47
2022-12-23T16:43:17.637Z,80.70
2022-12-23T16:46:22.370Z,80.80
2022-12-23T16:49:34.333Z,81.06
2022-12-23T16:52:36.525Z,81.34
2022-12-23T16:55:42.879Z,81.41
2022-12-23T16:58:48.545Z,81.64
2022-12-23T17:01:51.178Z,82.04
2022-12-23T17:04:53.245Z,82.19
2022-12-23T17:07:55.380Z,82.17
2022-12-23T17:10:59.400Z,82.11
2022-12-23T17:14:05.610Z,81.94
2022-12-23T17:17:26.138Z,81.57
2022-12-23T17:20:28.502Z,81.67
2022-12-23T17:23:32.608Z,81.84
2022-12-23T17:26:34.787Z,81.67
2022-12-23T17:29:36.825Z,81.55
2022-12-23T17:32:39.286Z,81.13
2022-12-23T17:35:41.392Z,81.08
2022-12-23T17:38:43.454Z,81.00
2022-12-23T17:41:46.081Z,80.76
2022-12-23T17:44:49.147Z,81.02
2022-12-23T17:47:51.472Z,80.75
2022-12-23T17:50:55.501Z,80.71
2022-12-23T17:53:58.900Z,80.79
2022-12-23T17:57:00.961Z,80.67
2022-12-23T18:00:04.109Z,80.97
2022-12-23T18:03:07.161Z,80.89
2022-12-23T18:06:13.731Z,81.11
2022-12-23T18:09:16.906Z,81.03
2022-12-23T18:12:34.664Z,80.94
2022-12-23T18:15:39.575Z,80.74
2022-12-23T18:18:46.232Z,80.33
2022-12-23T18:21:49.966Z,80.31
2022-12-23T18:24:58.917Z,80.49
2022-12-23T18:28:01.547Z,80.35
2022-12-23T18:31:05.396Z,80.35
2022-12-23T18:34:07.647Z,80.47
2022-12-23T18:37:09.750Z,80.42
2022-12-23T18:40:12.348Z,80.37
2022-12-23T18:43:19.754Z,80.26
2022-12-23T18:46:22.145Z,80.41
2022-12-23T18:49:24.351Z,80.78
2022-12-23T18:52:26.655Z,80.90
2022-12-23T18:55:30.508Z,81.03
2022-12-23T18:58:32.637Z,80.90
2022-12-23T19:01:35.343Z,81.11
2022-12-23T19:04:37.790Z,81.04
2022-12-23T19:07:39.919Z,81.02
2022-12-23T19:10:46.488Z,81.02
2022-12-23T19:13:49.133Z,80.99
2022-12-23T19:16:52.633Z,81.21
2022-12-23T19:19:55.002Z,81.36
2022-12-23T19:22:57.368Z,81.36
2022-12-23T19:25:59.492Z,81.58
2022-12-23T19:29:01.618Z,81.53
2022-12-23T19:32:03.887Z,81.57
2022-12-23T19:35:06.526Z,81.20
2022-12-23T19:38:08.645Z,81.04
2022-12-23T19:41:13.756Z,80.75
2022-12-23T19:44:15.823Z,80.48
2022-12-23T19:47:17.978Z,80.58
2022-12-23T19:50:20.199Z,80.81
2022-12-23T19:53:22.304Z,80.77
2022-12-23T19:56:25.220Z,81.14
2022-12-23T19:59:27.436Z,81.22
2022-12-23T20:02:29.953Z,81.31
2022-12-23T20:05:32.173Z,81.41
2022-12-23T20:08:34.959Z,81.39
2022-12-23T20:11:48.706Z,81.12
2022-12-23T20:14:51.007Z,81.25
2022-12-23T20:17:54.282Z,81.37
2022-12-23T20:20:58.386Z,81.15
2022-12-23T20:24:00.871Z,80.99
2022-12-23T20:27:09.314Z,81.17
2022-12-23T20:30:13.664Z,81.23
2022-12-23T20:33:16.352Z,81.27
2022-12-23T20:36:21.806Z,81.41
2022-12-23T20:39:24.077Z,81.48
2022-12-23T20:42:28.153Z,81.47
2022-12-23T20:45:30.899Z,81.37
2022-12-23T20:48:34.695Z,81.43
2022-12-23T20:51:37.274Z,81.31
2022-12-23T20:54:39.599Z,81.34
2022-12-23T20:57:44.948Z,81.64
2022-12-23T21:00:49.885Z,81.72
2022-12-23T21:03:52.220Z,82.08
2022-12-23T21:06:54.352Z,82.65
2022-12-23T21:09:56.486Z,82.75
2022-12-23T21:12:58.663Z,82.84
2022-12-23T21:16:02.810Z,82.82
2022-12-23T21:19:07.513Z,82.38
2022-12-23T21:22:09.785Z,82.20
2022-12-23T21:25:11.859Z,82.42
2022-12-23T21:28:13.924Z,82.21
2022-12-23T21:31:19.128Z,82.30
2022-12-23T21:34:21.219Z,82.39
2022-12-23T21:37:23.249Z,82.44
2022-12-23T21:40:25.465Z,82.47
2022-12-23T21:43:27.976Z,82.70
2022-12-23T21:46:30.208Z,82.77
2022-12-23T21:49:32.351Z,82.95
2022-12-23T21:52:34.381Z,83.05
2022-12-23T21:55:36.394Z,82.98
2022-12-23T21:58:39.075Z,83.06
2022-12-23T22:01:42.629Z,82.93
2022-12-23T22:04:44.789Z,83.22
2022-12-23T22:07:46.813Z,82.79
2022-12-23T22:10:55.196Z,82.58
2022-12-23T22:13:58.934Z,82.05
2022-12-23T22:17:01.042Z,81.64
2022-12-23T22:20:03.980Z,81.02
2022-12-23T22:23:07.232Z,80.91
2022-12-23T22:26:17.447Z,80.67
2022-12-23T22:29:22.988Z,80.65
2022-12-23T22:32:25.301Z,80.52
2022-12-23T22:35:28.093Z,80.42
2022-12-23T22:38:30.262Z,80.43
2022-12-23T22:41:32.987Z,80.77
2022-12-23T22:44:35.094Z,81.07
2022-12-23T22:47:37.413Z,81.20
2022-12-23T22:50:41.123Z,81.54
2022-12-23T22:53:44.422Z,81.28
2022-12-23T22:56:46.562Z,81.73
2022-12-23T22:59:48.694Z,81.93
2022-12-23T23:02:50.715Z,81.85
2022-12-23T23:05:56.740Z,82.21
2022-12-23T23:08:59.472Z,82.31
2022-12-23T23:12:01.864Z,82.16
2022-12-23T23:15:04.311Z,82.19
2022-12-23T23:18:06.426Z,82.28
2022-12-23T23:21:11.552Z,82.47
2022-12-23T23:24:13.772Z,82.54
2022-12-23T23:27:16.174Z,82.54
2022-12-23T23:30:20.641Z,82.86
2022-12-23T23:33:22.857Z,82.91
2022-12-23T23:36:25.244Z,83.09
2022-12-23T23:39:27.646Z,83.14
2022-12-23T23:42:29.963Z,83.05
2022-12-23T23:45:32.192Z,82.68
2022-12-23T23:48:34.391Z,82.70
2022-12-23T23:51:36.453Z,82.48
2022-12-23T23:54:38.925Z,82.59
2022-12-23T23:57:41.053Z,82.62
